Ionia, Michigan
Current Conditions -  °F | °C
As of 1:13 PM on Friday 28 Nov 2014 (Local Time) from KY70 Reporting Station
Light Snow Light Snow  
Wind Chill: 15°   Ceiling: 3700
Heat Index: 26°   Visibility: 7mi
Dew Point: 19°   Wind: 13mph
Humidity: 73%   Direction: 210°SSW
Pressure: 30.18"   Gusts: NA
Location:  42.99°N, 85.05°W
Report Text: KY70 281813Z AUTO 21011KT 7SM -SN SCT017 BKN037 OVC050 M03/M07 A3018 RMK AO2 T10321075
Loading
Personal Weather Stations






























Interactive Weather Map New forecast layout! Learn more

10-Day Weather Forecast

Advertisements
Track Severe Weather on mobile